Relevés horaires Beauvechain (Belgique)


Relevés horaires à Beauvechain - Samedi 15 Févr. 2020
Heure UTC1 Température [°C] Vent [km/h] Hum. [%] Pres.4 [hPa] Visi. [Km] Nébu. [octa] Préc.5 [mm] Cond.
2m. Res. Ros. Dir.2 Vit. Moy. Raf.3
23:00 11.5 9.1 7.1 SSO 22.2 -- 35.2 74 1010.1(-1.7/3h) 19 -- -- --
22:00 11.8 9.3 6.8 SSO 24.1 -- 35.2 71 1010.2(-2.4/3h) 20 -- -- --
21:00 11.4 8.8 5.9 SSO 24.1 -- 35.2 69 1011.1(-2.2/3h) 19 -- -- --
20:00 11.2 8.7 5.5 SSO 22.2 -- 33.3 68 1011.8(-1.5/3h) 20 -- -- --
19:00 11.1 8.9 5.4 S 18.5 -- 25.9 68 1012.6(-1.2/3h) 20 -- -- --
18:00 10.6 8.5 5.9 S 16.7 -- 27.8 73 1013.2(-1.8/3h) 19 -- -- --
17:00 10.7 8.8 6.3 S 14.8 -- 22.2 74 1013.5(-2.4/3h) 20 -- -- --
16:00 11.1 9.3 6.4 S 14.8 -- 24.1 73 1013.8(-2.4/3h) 20 -- -- --
15:00 11.3 9.8 6.7 S 13.0 -- 27.8 73 1015(-2.0/3h) 20 -- -- --
14:00 12.1 10.3 6.8 SSO 16.7 -- 24.1 70 1015.8(-1.4/3h) 20 -- -- --
13:00 12.3 10.8 7.1 SSO 14.8 -- 27.8 71 1016.2(-2.2/3h) 20 -- -- --
12:00 11.2 8.9 6.7 SSO 20.4 -- 27.8 74 1017.1(-1.8/3h) 20 -- -- --
11:00 10.4 8.2 6.4 SSO 16.7 -- 24.1 76 1017.3(-1.8/3h) 17 -- -- --
10:00 9.7 7.3 6.2 SSO 16.7 -- 22.2 79 1018.7(-1.1/3h) 16 -- -- --
09:00 8.6 6.5 5.3 SSO 13.0 -- 20.4 80 1019.1(-0.6/3h) 20 -- -- --
08:00 7.4 5.3 4.6 S 11.1 -- 16.7 82 1019.5(-0.8/3h) 15 -- -- --
07:00 7.5 5.4 4.6 SSO 11.1 -- 18.5 82 1020(-0.6/3h) 16 -- -- --
06:00 7.5 5.1 4.4 S 13.0 -- 20.4 81 1019.7(-1.0/3h) 18 -- -- --
05:00 7.6 5.6 4.4 SSO 11.1 -- 16.7 80 1020.2(-0.9/3h) 18 -- -- --
04:00 7.6 5.6 4.3 SSO 11.1 -- 16.7 80 1020.7(-0.9/3h) 19 -- -- --
03:00 7.5 5.4 4.3 SSO 11.1 -- 16.7 80 1020.7(-1.0/3h) 17 -- -- --
02:00 7.8 5.8 4.3 S 11.1 -- 16.7 78 1021.2(-1.0/3h) 20 -- -- --
01:00 7.6 5.6 4.2 S 11.1 -- 16.7 79 1021.6(-0.9/3h) 20 -- -- --
00:00 7.5 5.4 4.1 SSO 11.1 -- 16.7 79 1021.8(-1.2/3h) 20 -- -- --

1 Coordinated Universal Time. Actuellement il est 10:00 locale et 08:00 UTC.

2 Le vent souffle depuis la direction indiquée vers la direction oposée.

3 Les rafales max. sont disponible 40 min après l'heure du relevé.

4 Pour les stations d'altitude (plus de 600m) le géopotentiel du niveau le plus proche de la pression obligatoire est indiqué.

5 Les stations disposant d'un diffuseur peuvent indiquer "trace". Cela signifie que des précipitations ont touchés le sol mais que la quantité est inférieure à 0.1 mm.

Récapitulatif de la journée
Température [°C] Vent [km/h] Ensoleillement4 [h] Precipitations totale5 [mm] Pression [Hpa]
Min1 Max.2 Moy.3 Max. Min Max.
7.1 12.6 0 35.2 0 h 0 min 0 1010.1 1021.8

1 Température minimale relevée entre 18:00 UTC la veille et 18:00 UTC le jour donné.

2 Température maximale relevée entre 06:00 UTC le jour donné et 06:00 UTC le lendemain.

3 Vent moyen de la journée basé sur les relevés horaires.

4 Ensoleillement en heures relevé entre 06:00 UTC la veille et 06:00 UTC le jour donné.

5 Précipitations totales tombées entre 06:00 UTC la jour donné et 06:00 UTC le lendemain.

Graphiques horaires